Time;durP1;ratioP1;P1;durP2;ratioP2;P2;SDS_P1;SDS_P2;PMS_P1;PMS_P2;Temp;Humidity;BMP_temperature;BMP_pressure;BME280_temperature;BME280_humidity;BME280_pressure;Samples;Min_cycle;Max_cycle;Signal;HPM_P1;HPM_P2
2023/05/03 00:00:07;;;;;;;8.33;2.57;;;5.30;99.90;;;;;;5028634;28;20176;-77
2023/05/03 00:02:38;;;;;;;9.67;3.10;;;5.30;99.90;;;;;;5029772;28;20602;-77
2023/05/03 00:05:04;;;;;;;7.97;2.73;;;5.20;99.90;;;;;;5030331;28;20205;-77
2023/05/03 00:07:30;;;;;;;5.07;2.63;;;5.10;99.90;;;;;;5030141;28;20636;-78
2023/05/03 00:09:56;;;;;;;6.77;2.80;;;5.10;99.90;;;;;;5030031;28;20183;-78
2023/05/03 00:12:21;;;;;;;3.40;2.40;;;5.10;99.90;;;;;;5029875;28;20188;-77
2023/05/03 00:14:47;;;;;;;5.00;3.20;;;5.00;99.90;;;;;;5028446;28;20204;-77
2023/05/03 00:17:12;;;;;;;4.67;2.77;;;5.00;99.90;;;;;;5030622;28;20323;-77
2023/05/03 00:19:38;;;;;;;7.57;3.23;;;4.90;99.90;;;;;;5030400;28;20177;-77
2023/05/03 00:22:04;;;;;;;3.07;2.27;;;4.90;99.90;;;;;;5028547;28;20631;-77
2023/05/03 00:24:29;;;;;;;3.83;3.00;;;4.90;99.90;;;;;;5028199;28;20172;-77
2023/05/03 00:26:55;;;;;;;4.20;2.87;;;4.80;99.90;;;;;;5029825;28;20315;-77
2023/05/03 00:29:21;;;;;;;8.60;3.00;;;4.80;99.90;;;;;;5029883;28;20169;-77
2023/05/03 00:31:47;;;;;;;5.83;3.00;;;4.80;99.90;;;;;;5029947;28;20168;-77
2023/05/03 00:34:13;;;;;;;5.63;3.10;;;4.80;99.90;;;;;;5029420;28;20312;-77
2023/05/03 00:36:39;;;;;;;3.47;2.70;;;4.80;99.90;;;;;;5029104;28;20197;-77
2023/05/03 00:39:04;;;;;;;10.70;3.33;;;4.80;99.90;;;;;;5027992;28;20585;-77
2023/05/03 00:41:30;;;;;;;7.80;3.17;;;4.70;99.90;;;;;;5027915;28;20173;-77
2023/05/03 00:43:55;;;;;;;3.67;2.80;;;4.70;99.90;;;;;;5029058;28;20200;-77
2023/05/03 00:46:21;;;;;;;4.50;2.83;;;4.80;99.90;;;;;;5029000;28;20173;-77
2023/05/03 00:48:50;;;;;;;5.57;2.63;;;4.70;99.90;;;;;;5029265;28;20658;-77
2023/05/03 00:51:17;;;;;;;4.03;2.93;;;4.60;99.90;;;;;;5028914;28;20686;-76
2023/05/03 00:53:43;;;;;;;5.97;3.07;;;4.70;99.90;;;;;;5028930;28;20172;-77
2023/05/03 00:56:10;;;;;;;5.30;3.40;;;4.70;99.90;;;;;;5027510;28;20239;-77
2023/05/03 00:58:38;;;;;;;4.53;2.97;;;4.60;99.90;;;;;;5028903;28;20690;-77
2023/05/03 01:01:06;;;;;;;4.60;2.93;;;4.60;99.90;;;;;;5027744;28;20177;-77
2023/05/03 01:03:34;;;;;;;4.67;2.60;;;4.60;99.90;;;;;;5030570;28;20200;-76
2023/05/03 01:06:24;;;;;;;6.83;3.20;;;4.60;99.90;;;;;;5031381;28;20259;-77
2023/05/03 01:08:59;;;;;;;3.50;3.07;;;4.50;99.90;;;;;;5032519;28;20149;-77
2023/05/03 01:11:59;;;;;;;5.17;3.10;;;4.50;99.90;;;;;;5032168;28;20209;-77
2023/05/03 01:14:51;;;;;;;5.33;3.10;;;4.50;99.90;;;;;;5030887;28;20664;-77
2023/05/03 01:17:24;;;;;;;6.67;3.17;;;4.40;99.90;;;;;;5060409;28;20291;-77
2023/05/03 01:19:55;;;;;;;4.10;3.17;;;4.50;99.90;;;;;;5032576;28;20162;-76
2023/05/03 01:22:38;;;;;;;5.93;2.90;;;4.40;99.90;;;;;;5031917;28;20185;-77
2023/05/03 01:25:12;;;;;;;5.40;2.93;;;4.30;99.90;;;;;;5030612;28;20164;-77
2023/05/03 01:27:38;;;;;;;6.93;3.17;;;4.30;99.90;;;;;;5030697;28;20227;-77
2023/05/03 01:30:06;;;;;;;4.33;3.00;;;4.30;99.90;;;;;;5030637;28;20177;-76
2023/05/03 01:32:41;;;;;;;5.03;3.07;;;4.20;99.90;;;;;;5032243;28;20639;-77
2023/05/03 01:35:10;;;;;;;5.00;3.03;;;4.20;99.90;;;;;;5031043;28;20187;-77
2023/05/03 01:37:37;;;;;;;4.20;3.27;;;4.20;99.90;;;;;;5030409;28;20192;-77
2023/05/03 01:40:06;;;;;;;4.63;2.90;;;4.10;99.90;;;;;;5030395;28;20667;-77
2023/05/03 01:42:35;;;;;;;5.30;3.00;;;4.20;99.90;;;;;;5030332;28;20575;-76
2023/05/03 01:45:03;;;;;;;4.87;3.03;;;4.20;99.90;;;;;;5031692;28;20463;-77
2023/05/03 01:47:28;;;;;;;3.93;3.10;;;4.20;99.90;;;;;;5031515;28;20696;-77
2023/05/03 01:49:54;;;;;;;5.20;3.30;;;4.10;99.90;;;;;;5030312;28;20263;-77
2023/05/03 01:52:19;;;;;;;6.70;3.50;;;4.10;99.90;;;;;;5031624;28;20240;-77
2023/05/03 01:54:45;;;;;;;6.67;3.00;;;4.10;99.90;;;;;;5030363;28;20229;-77
2023/05/03 01:57:10;;;;;;;6.00;3.07;;;4.10;99.90;;;;;;5031298;28;20193;-77
2023/05/03 01:59:36;;;;;;;8.83;2.90;;;4.10;99.90;;;;;;5031450;28;20184;-77
2023/05/03 02:02:02;;;;;;;5.70;2.80;;;4.00;99.90;;;;;;5029997;28;20204;-77
2023/05/03 02:04:29;;;;;;;5.93;3.30;;;4.10;99.90;;;;;;5030105;28;20204;-77
2023/05/03 02:06:54;;;;;;;5.20;3.30;;;4.00;99.90;;;;;;5029837;28;20193;-77
2023/05/03 02:09:20;;;;;;;4.47;3.40;;;4.00;99.90;;;;;;5030071;28;20176;-77
2023/05/03 02:11:46;;;;;;;9.43;3.20;;;4.00;99.90;;;;;;5031241;28;20175;-77
2023/05/03 02:14:11;;;;;;;5.40;2.90;;;4.00;99.90;;;;;;5031188;28;20240;-77
2023/05/03 02:16:37;;;;;;;5.47;3.10;;;3.90;99.90;;;;;;5031043;28;20203;-77
2023/05/03 02:19:02;;;;;;;6.37;3.50;;;3.90;99.90;;;;;;5031255;28;20172;-77
2023/05/03 02:21:28;;;;;;;3.77;2.90;;;3.90;99.90;;;;;;5031013;28;20168;-77
2023/05/03 02:23:53;;;;;;;7.03;3.20;;;3.90;99.90;;;;;;5029613;28;20546;-77
2023/05/03 02:26:19;;;;;;;6.30;3.30;;;3.90;99.90;;;;;;5030926;28;20175;-76
2023/05/03 02:28:45;;;;;;;4.10;2.93;;;3.90;99.90;;;;;;5031086;28;20169;-77
2023/05/03 02:31:12;;;;;;;7.23;3.40;;;3.80;99.90;;;;;;5030879;28;20169;-76
2023/05/03 02:33:38;;;;;;;6.63;3.30;;;3.90;99.90;;;;;;5030898;28;20264;-77
2023/05/03 02:36:04;;;;;;;5.70;3.50;;;3.80;99.90;;;;;;5030880;28;20204;-77
2023/05/03 02:38:29;;;;;;;8.00;3.03;;;3.80;99.90;;;;;;5030898;28;20210;-77
2023/05/03 02:40:55;;;;;;;4.93;3.10;;;3.80;99.90;;;;;;5030743;28;20184;-77
2023/05/03 02:43:21;;;;;;;5.87;3.30;;;3.80;99.90;;;;;;5029345;28;20570;-77
2023/05/03 02:45:46;;;;;;;3.33;3.00;;;3.80;99.90;;;;;;5030621;28;20160;-77
2023/05/03 02:48:12;;;;;;;5.13;3.10;;;3.80;99.90;;;;;;5030656;28;20261;-77
2023/05/03 02:50:38;;;;;;;5.80;3.93;;;3.70;99.90;;;;;;5030591;28;20184;-77
2023/05/03 02:53:04;;;;;;;6.00;3.40;;;3.80;99.90;;;;;;5030612;28;20168;-77
2023/05/03 02:55:30;;;;;;;5.63;3.63;;;3.80;99.90;;;;;;5030749;28;20717;-77
2023/05/03 02:57:56;;;;;;;7.30;3.67;;;3.80;99.90;;;;;;5029052;28;20793;-77
2023/05/03 03:00:21;;;;;;;4.47;3.53;;;3.80;99.90;;;;;;5030494;28;20209;-77
2023/05/03 03:02:47;;;;;;;5.70;3.90;;;3.70;99.90;;;;;;5030625;28;20235;-77
2023/05/03 03:05:13;;;;;;;3.37;2.77;;;3.70;99.90;;;;;;5030408;28;20169;-77
2023/05/03 03:07:39;;;;;;;6.67;3.40;;;3.70;99.90;;;;;;5030494;28;20574;-77
2023/05/03 03:10:05;;;;;;;6.83;3.53;;;3.70;99.90;;;;;;5030629;28;20171;-77
2023/05/03 03:12:32;;;;;;;5.73;3.90;;;3.70;99.90;;;;;;5028871;28;20192;-77
2023/05/03 03:14:57;;;;;;;12.97;4.57;;;3.70;99.90;;;;;;5030372;28;20181;-77
2023/05/03 03:17:23;;;;;;;4.00;3.37;;;3.60;99.90;;;;;;5030273;28;20253;-76
2023/05/03 03:19:48;;;;;;;6.53;3.87;;;3.60;99.90;;;;;;5030173;28;20643;-77
2023/05/03 03:22:14;;;;;;;8.40;4.13;;;3.60;99.90;;;;;;5027924;28;20211;-77
2023/05/03 03:24:40;;;;;;;5.60;4.23;;;3.60;99.90;;;;;;5028190;28;20168;-77
2023/05/03 03:27:05;;;;;;;8.50;4.00;;;3.50;99.90;;;;;;5028613;28;20188;-77
2023/05/03 03:29:31;;;;;;;5.57;3.73;;;3.50;99.90;;;;;;5030076;28;20288;-77
2023/05/03 03:31:57;;;;;;;7.87;4.50;;;3.50;99.90;;;;;;5030003;28;20200;-77
2023/05/03 03:34:23;;;;;;;7.50;4.00;;;3.60;99.90;;;;;;5030023;28;20215;-77
2023/05/03 03:36:48;;;;;;;6.97;4.03;;;3.50;99.90;;;;;;5029886;28;20246;-77
2023/05/03 03:39:14;;;;;;;10.13;4.53;;;3.40;99.90;;;;;;5029982;28;20165;-76
2023/05/03 03:41:39;;;;;;;7.90;4.47;;;3.50;99.90;;;;;;5028604;28;20263;-77
2023/05/03 03:44:05;;;;;;;9.50;5.23;;;3.40;99.90;;;;;;5029713;28;20232;-76
2023/05/03 03:46:30;;;;;;;4.73;4.03;;;3.50;99.90;;;;;;5028341;28;20192;-77
2023/05/03 03:48:56;;;;;;;8.00;4.20;;;3.40;99.90;;;;;;5028438;28;20172;-77
2023/05/03 03:51:22;;;;;;;7.83;4.37;;;3.50;99.90;;;;;;5029678;28;20165;-77
2023/05/03 03:53:47;;;;;;;8.03;4.93;;;3.50;99.90;;;;;;5029727;28;20175;-77
2023/05/03 03:56:13;;;;;;;5.73;4.57;;;3.50;99.90;;;;;;5028384;28;20644;-77
2023/05/03 03:58:38;;;;;;;5.60;4.37;;;3.50;99.90;;;;;;5029748;28;20172;-76
2023/05/03 04:01:04;;;;;;;5.07;3.83;;;3.40;99.90;;;;;;5029946;28;20511;-77
2023/05/03 04:03:30;;;;;;;10.03;4.20;;;3.50;99.90;;;;;;5029397;28;20200;-77
2023/05/03 04:05:55;;;;;;;5.30;3.90;;;3.50;99.90;;;;;;5029681;28;20248;-76
2023/05/03 04:08:21;;;;;;;7.27;4.37;;;3.40;99.90;;;;;;5029400;28;20188;-77
2023/05/03 04:10:46;;;;;;;13.70;4.87;;;3.50;99.90;;;;;;5028231;28;20172;-77
2023/05/03 04:13:12;;;;;;;8.27;4.20;;;3.40;99.90;;;;;;5028075;28;20188;-76
2023/05/03 04:15:37;;;;;;;5.57;3.90;;;3.50;99.90;;;;;;5029486;28;20198;-76
2023/05/03 04:18:04;;;;;;;7.73;4.73;;;3.50;99.90;;;;;;5029414;28;20214;-76
2023/05/03 04:20:30;;;;;;;5.17;4.20;;;3.50;99.90;;;;;;5028088;28;20176;-77
2023/05/03 04:22:56;;;;;;;7.63;4.20;;;3.50;99.90;;;;;;5029321;28;20624;-76
2023/05/03 04:25:21;;;;;;;7.37;4.50;;;3.50;99.90;;;;;;5029319;28;20243;-77
2023/05/03 04:27:47;;;;;;;7.77;4.47;;;3.50;99.90;;;;;;5029198;28;20189;-77
2023/05/03 04:30:13;;;;;;;14.93;5.27;;;3.60;99.90;;;;;;5029297;28;20170;-77
2023/05/03 04:32:39;;;;;;;8.67;5.27;;;3.60;99.90;;;;;;5029389;28;20602;-77
2023/05/03 04:35:09;;;;;;;6.03;4.60;;;3.60;99.90;;;;;;5028224;28;20272;-77
2023/05/03 04:37:35;;;;;;;8.73;4.90;;;3.60;99.90;;;;;;5032864;28;20228;-78
2023/05/03 04:40:03;;;;;;;10.03;4.97;;;3.60;99.90;;;;;;5034389;28;20168;-77
2023/05/03 04:42:29;;;;;;;7.80;4.80;;;3.60;99.90;;;;;;5031406;28;20210;-76
2023/05/03 04:44:55;;;;;;;7.10;4.80;;;3.60;99.90;;;;;;5033674;28;20243;-77
2023/05/03 04:47:21;;;;;;;9.50;4.60;;;3.60;99.90;;;;;;5032823;28;20221;-77
2023/05/03 04:49:47;;;;;;;9.93;5.17;;;3.60;99.90;;;;;;5031450;28;20651;-77
2023/05/03 04:52:13;;;;;;;8.80;5.40;;;3.60;99.90;;;;;;5032484;28;20176;-78
2023/05/03 04:54:38;;;;;;;8.17;4.60;;;3.60;99.90;;;;;;5033080;28;20229;-77
2023/05/03 04:57:04;;;;;;;8.30;4.43;;;3.60;99.90;;;;;;5031240;28;20671;-78
2023/05/03 04:59:29;;;;;;;7.10;5.20;;;3.60;99.90;;;;;;5032417;28;20655;-77
2023/05/03 05:01:55;;;;;;;9.93;4.77;;;3.60;99.90;;;;;;5031267;28;20279;-77
2023/05/03 05:04:21;;;;;;;5.87;4.57;;;3.60;99.90;;;;;;5032789;28;20173;-76
2023/05/03 05:06:46;;;;;;;6.80;5.07;;;3.70;99.90;;;;;;5030899;28;20690;-76
2023/05/03 05:09:26;;;;;;;9.37;5.10;;;3.70;99.90;;;;;;5030993;28;20661;-75
2023/05/03 05:11:52;;;;;;;10.80;5.63;;;3.80;99.90;;;;;;5032115;28;20604;-76
2023/05/03 05:14:18;;;;;;;10.13;5.10;;;3.80;99.90;;;;;;5032161;28;20170;-75
2023/05/03 05:16:43;;;;;;;8.50;5.67;;;3.80;99.90;;;;;;5033785;28;20196;-78
2023/05/03 05:19:09;;;;;;;8.57;5.27;;;3.90;99.90;;;;;;5032452;28;20281;-77
2023/05/03 05:21:35;;;;;;;8.77;5.57;;;4.00;99.90;;;;;;5031766;28;20176;-77
2023/05/03 05:24:00;;;;;;;7.33;5.50;;;4.00;99.90;;;;;;5034070;28;20674;-78
2023/05/03 05:26:27;;;;;;;8.93;5.20;;;4.10;99.90;;;;;;5033919;28;20925;-77
2023/05/03 05:28:52;;;;;;;9.73;6.00;;;4.10;99.90;;;;;;5031245;28;20613;-77
2023/05/03 05:31:18;;;;;;;8.63;5.90;;;4.20;99.90;;;;;;5031067;28;20185;-77
2023/05/03 05:33:43;;;;;;;12.97;6.27;;;4.20;99.90;;;;;;5032365;28;20232;-77
2023/05/03 05:36:09;;;;;;;9.17;6.27;;;4.30;99.90;;;;;;5032096;28;20179;-76
2023/05/03 05:38:35;;;;;;;12.23;6.80;;;4.40;99.90;;;;;;5031882;28;20176;-77
2023/05/03 05:41:01;;;;;;;13.90;6.30;;;4.40;99.90;;;;;;5032012;28;20169;-77
2023/05/03 05:43:26;;;;;;;11.10;6.40;;;4.50;99.90;;;;;;5031719;28;20243;-77
2023/05/03 05:45:52;;;;;;;12.03;6.97;;;4.60;99.90;;;;;;5030421;28;20180;-77
2023/05/03 05:48:18;;;;;;;9.67;6.20;;;4.60;99.90;;;;;;5031095;28;20199;-77
2023/05/03 05:50:44;;;;;;;10.23;7.00;;;4.70;99.90;;;;;;5031814;28;20176;-77
2023/05/03 05:53:10;;;;;;;8.23;6.97;;;4.80;99.90;;;;;;5031534;28;20172;-75
2023/05/03 05:55:35;;;;;;;10.57;7.50;;;4.80;99.90;;;;;;5030180;28;20180;-75
2023/05/03 05:58:01;;;;;;;10.00;7.57;;;4.90;99.90;;;;;;5030145;28;20200;-75
2023/05/03 06:00:26;;;;;;;15.37;7.50;;;5.00;99.90;;;;;;5031410;28;20193;-75
2023/05/03 06:02:52;;;;;;;15.57;8.07;;;5.10;99.90;;;;;;5030039;28;20204;-74
2023/05/03 06:05:17;;;;;;;13.03;8.67;;;5.20;99.90;;;;;;5031500;28;20173;-75
2023/05/03 06:07:43;;;;;;;11.47;7.73;;;5.30;99.90;;;;;;5031178;28;20543;-76
2023/05/03 06:10:09;;;;;;;15.97;8.53;;;5.40;99.90;;;;;;5029940;28;20173;-76
2023/05/03 06:12:35;;;;;;;13.23;7.40;;;5.50;99.90;;;;;;5030992;28;20653;-76
2023/05/03 06:15:01;;;;;;;15.53;8.13;;;5.60;99.90;;;;;;5031113;28;20263;-74
2023/05/03 06:17:27;;;;;;;10.47;7.33;;;5.80;99.90;;;;;;5031058;28;20210;-75
2023/05/03 06:19:52;;;;;;;13.50;7.27;;;5.90;99.90;;;;;;5031122;28;20664;-75
2023/05/03 06:22:18;;;;;;;11.87;7.33;;;5.90;99.90;;;;;;5031237;28;20200;-75
2023/05/03 06:24:43;;;;;;;15.53;7.23;;;6.00;99.90;;;;;;5029699;28;20207;-75
2023/05/03 06:27:09;;;;;;;9.17;6.67;;;6.10;99.90;;;;;;5031087;28;20228;-75
2023/05/03 06:29:34;;;;;;;12.37;7.03;;;6.20;99.90;;;;;;5030845;28;20200;-75
2023/05/03 06:32:00;;;;;;;12.83;6.57;;;6.30;99.90;;;;;;5030939;28;20164;-75
2023/05/03 06:34:25;;;;;;;9.30;6.23;;;6.40;99.90;;;;;;5031047;28;20171;-74
2023/05/03 06:36:52;;;;;;;8.10;5.90;;;6.50;99.90;;;;;;5029517;28;20192;-75
2023/05/03 06:39:17;;;;;;;9.67;5.70;;;6.60;99.90;;;;;;5030842;28;20177;-75
2023/05/03 06:41:43;;;;;;;13.77;6.43;;;6.70;99.90;;;;;;5030811;28;20177;-76
2023/05/03 06:44:09;;;;;;;10.63;5.90;;;6.80;99.90;;;;;;5030606;28;20264;-76
2023/05/03 06:46:34;;;;;;;10.40;5.80;;;6.90;73.80;;;;;;5030756;28;20248;-76
2023/05/03 06:49:00;;;;;;;11.40;5.87;;;7.00;24.80;;;;;;5030836;28;20168;-76
2023/05/03 06:51:28;;;;;;;12.83;6.40;;;7.10;1.00;;;;;;5030612;28;20169;-76
2023/05/03 06:53:55;;;;;;;8.90;5.23;;;7.20;1.00;;;;;;5030776;28;20182;-76
2023/05/03 06:56:20;;;;;;;7.63;5.10;;;7.30;1.00;;;;;;5030534;28;20256;-76
2023/05/03 06:58:46;;;;;;;10.20;5.50;;;7.40;1.00;;;;;;5030341;28;20196;-75
2023/05/03 07:01:12;;;;;;;9.53;5.10;;;7.50;1.00;;;;;;5030054;28;20172;-76
2023/05/03 07:03:37;;;;;;;8.47;5.13;;;7.60;1.00;;;;;;5029029;28;20206;-75
2023/05/03 07:06:03;;;;;;;6.57;4.53;;;7.70;1.00;;;;;;5030831;28;20214;-75
2023/05/03 07:08:29;;;;;;;9.60;4.97;;;7.80;1.00;;;;;;5030192;28;20572;-76
2023/05/03 07:10:55;;;;;;;6.70;4.83;;;7.90;1.00;;;;;;5030338;28;20172;-76
2023/05/03 07:13:20;;;;;;;6.90;4.37;;;8.00;1.00;;;;;;5030227;28;20187;-76
2023/05/03 07:15:46;;;;;;;9.77;4.40;;;8.00;1.00;;;;;;5030230;28;20180;-75
2023/05/03 07:18:12;;;;;;;6.97;4.60;;;8.10;1.00;;;;;;5030148;28;20196;-75
2023/05/03 07:20:38;;;;;;;8.00;3.97;;;8.20;1.00;;;;;;5028847;28;20184;-76
2023/05/03 07:23:05;;;;;;;10.03;4.27;;;8.30;1.00;;;;;;5029878;28;20199;-76
2023/05/03 07:25:31;;;;;;;8.30;4.00;;;8.40;1.00;;;;;;5029961;28;20164;-76
2023/05/03 07:27:57;;;;;;;6.17;3.70;;;8.40;1.00;;;;;;5030049;28;20189;-76
2023/05/03 07:30:23;;;;;;;12.43;4.23;;;8.50;1.00;;;;;;5030147;28;20619;-76
2023/05/03 07:32:49;;;;;;;7.77;3.93;;;8.60;99.90;;;;;;5030260;28;20245;-76
2023/05/03 07:35:15;;;;;;;8.07;3.93;;;8.70;1.00;;;;;;5030246;28;20664;-76
2023/05/03 07:37:41;;;;;;;6.43;4.43;;;8.70;99.90;;;;;;5029856;28;20224;-76
2023/05/03 07:40:08;;;;;;;9.57;3.93;;;8.80;99.90;;;;;;5029826;28;20176;-76
2023/05/03 07:42:34;;;;;;;7.33;3.83;;;8.90;99.90;;;;;;5028505;28;20210;-76
2023/05/03 07:45:00;;;;;;;7.03;3.30;;;9.00;99.90;;;;;;5029899;28;20183;-76
2023/05/03 07:47:26;;;;;;;5.80;3.23;;;9.00;99.90;;;;;;5029995;28;20558;-76
2023/05/03 07:49:52;;;;;;;8.27;3.40;;;9.10;1.00;;;;;;5028474;28;20647;-75
2023/05/03 07:52:18;;;;;;;5.67;3.03;;;9.20;1.00;;;;;;5029695;28;20257;-76
2023/05/03 07:54:44;;;;;;;12.10;3.80;;;9.30;1.00;;;;;;5028399;28;20208;-74
2023/05/03 07:57:12;;;;;;;4.73;3.23;;;9.40;1.00;;;;;;5028305;28;20231;-76
2023/05/03 07:59:38;;;;;;;4.50;2.87;;;9.40;1.00;;;;;;5029555;28;20176;-76
2023/05/03 08:02:03;;;;;;;5.97;2.97;;;9.50;1.00;;;;;;5029496;28;20184;-76
2023/05/03 08:04:29;;;;;;;7.10;3.00;;;9.50;1.00;;;;;;5029967;28;20191;-76
2023/05/03 08:06:54;;;;;;;6.60;2.80;;;9.60;1.00;;;;;;5028116;28;20694;-77
2023/05/03 08:09:20;;;;;;;5.53;2.60;;;9.60;99.90;;;;;;5029680;28;20269;-76
2023/05/03 08:11:46;;;;;;;4.07;2.73;;;9.70;99.90;;;;;;5027792;28;20179;-76
2023/05/03 08:14:11;;;;;;;7.80;2.70;;;9.80;1.00;;;;;;5029635;28;20188;-76
2023/05/03 08:16:37;;;;;;;6.97;2.57;;;9.80;94.40;;;;;;5029295;28;20192;-76
2023/05/03 08:19:03;;;;;;;2.53;1.87;;;9.90;1.00;;;;;;5029349;28;20179;-76
2023/05/03 08:21:29;;;;;;;3.77;2.37;;;9.90;1.00;;;;;;5029505;28;20284;-76
2023/05/03 08:23:55;;;;;;;7.20;2.80;;;10.00;1.00;;;;;;5029277;28;20222;-76
2023/05/03 08:26:21;;;;;;;6.90;2.70;;;10.00;1.00;;;;;;5029403;28;20692;-76
2023/05/03 08:28:46;;;;;;;4.47;3.20;;;10.10;99.90;;;;;;5027958;28;20202;-76
2023/05/03 08:31:12;;;;;;;4.20;2.70;;;10.20;99.90;;;;;;5029427;28;20247;-76
2023/05/03 08:33:38;;;;;;;3.50;2.30;;;10.30;1.00;;;;;;5029217;28;20179;-76
2023/05/03 08:36:04;;;;;;;3.33;2.20;;;10.30;1.00;;;;;;5029141;28;20234;-76
2023/05/03 08:38:30;;;;;;;4.30;2.40;;;10.40;99.90;;;;;;5028963;28;20516;-76
2023/05/03 08:41:00;;;;;;;4.77;2.73;;;10.60;99.90;;;;;;5027821;28;20252;-76
2023/05/03 08:43:34;;;;;;;5.53;2.40;;;10.60;99.90;;;;;;5009039;28;20204;-76
2023/05/03 08:45:59;;;;;;;5.83;2.90;;;10.60;7.20;;;;;;5009389;28;20581;-76
2023/05/03 08:48:25;;;;;;;3.03;2.20;;;10.60;1.00;;;;;;5009225;28;20189;-76
2023/05/03 08:50:52;;;;;;;4.83;2.47;;;10.70;1.00;;;;;;5007996;28;20184;-75
2023/05/03 08:53:18;;;;;;;4.33;2.23;;;10.60;1.00;;;;;;5007760;28;20653;-76
2023/05/03 08:55:44;;;;;;;6.00;2.57;;;10.80;1.00;;;;;;5009148;28;20184;-75
2023/05/03 08:58:11;;;;;;;6.43;2.43;;;10.90;1.00;;;;;;5007895;28;20207;-74
2023/05/03 09:00:37;;;;;;;4.40;2.70;;;10.90;99.90;;;;;;5009071;28;20256;-75
2023/05/03 09:03:03;;;;;;;3.43;2.23;;;10.90;99.90;;;;;;5007569;28;20197;-76
2023/05/03 09:05:33;;;;;;;4.23;2.60;;;10.90;99.90;;;;;;5008093;28;20192;-75
2023/05/03 09:08:03;;;;;;;4.57;2.40;;;11.00;99.90;;;;;;5009000;28;20185;-75
2023/05/03 09:10:29;;;;;;;3.97;2.40;;;11.00;99.90;;;;;;5009556;28;20158;-75
2023/05/03 09:13:00;;;;;;;6.07;3.03;;;11.10;99.90;;;;;;5008700;28;20197;-75
2023/05/03 09:15:28;;;;;;;4.07;3.03;;;11.20;1.00;;;;;;5008966;28;20184;-75
2023/05/03 09:18:12;;;;;;;5.17;3.10;;;11.20;1.00;;;;;;5007554;28;20201;-75
2023/05/03 09:20:39;;;;;;;3.57;2.73;;;11.30;1.00;;;;;;5008817;28;20252;-76
2023/05/03 09:23:08;;;;;;;5.43;2.97;;;11.40;1.00;;;;;;5024786;28;20200;-75
2023/05/03 09:25:47;;;;;;;5.50;3.23;;;11.40;1.00;;;;;;5031982;28;20189;-76
2023/05/03 09:28:14;;;;;;;3.70;2.70;;;11.50;99.90;;;;;;5031903;28;20352;-75
2023/05/03 09:30:41;;;;;;;6.13;2.80;;;11.60;1.00;;;;;;5031826;28;20176;-76
2023/05/03 09:33:07;;;;;;;4.13;2.80;;;11.60;1.00;;;;;;5030650;28;20263;-75
2023/05/03 09:35:33;;;;;;;4.47;2.10;;;11.70;99.90;;;;;;5030612;28;20683;-75
2023/05/03 09:37:59;;;;;;;4.70;2.27;;;11.70;99.90;;;;;;5030438;28;20748;-75
2023/05/03 09:40:28;;;;;;;4.67;2.60;;;11.70;99.90;;;;;;5030402;28;20271;-75
2023/05/03 09:43:10;;;;;;;3.73;2.63;;;11.80;72.10;;;;;;5024001;28;20200;-76
2023/05/03 09:45:37;;;;;;;4.17;2.23;;;11.80;1.00;;;;;;5021433;28;20183;-76
2023/05/03 09:48:04;;;;;;;4.73;2.70;;;11.80;1.00;;;;;;5031506;28;20690;-76
2023/05/03 09:50:35;;;;;;;4.87;2.80;;;11.90;14.60;;;;;;5031611;28;20203;-75
2023/05/03 09:53:02;;;;;;;4.83;2.23;;;11.90;1.00;;;;;;5012754;28;20188;-76
2023/05/03 09:55:36;;;;;;;6.87;3.07;;;12.00;1.00;;;;;;5011730;28;20706;-76
2023/05/03 09:58:06;;;;;;;4.13;2.50;;;12.10;17.20;;;;;;5011634;28;20189;-75
2023/05/03 10:00:39;;;;;;;7.27;3.10;;;12.10;21.30;;;;;;5011723;28;20272;-76
2023/05/03 10:03:07;;;;;;;4.50;2.97;;;12.20;1.00;;;;;;5028469;28;20589;-76
2023/05/03 10:05:39;;;;;;;6.07;2.77;;;12.20;1.00;;;;;;5031347;28;20183;-76
2023/05/03 10:08:05;;;;;;;4.10;2.87;;;12.30;1.00;;;;;;5031264;28;20192;-76
2023/05/03 10:10:32;;;;;;;6.23;3.40;;;12.40;33.50;;;;;;5019121;28;20169;-76
2023/05/03 10:13:00;;;;;;;4.87;3.37;;;12.50;99.90;;;;;;5010031;28;20232;-76
2023/05/03 10:15:29;;;;;;;6.87;2.77;;;12.60;1.00;;;;;;5026762;28;20200;-76
2023/05/03 10:17:56;;;;;;;5.67;3.10;;;12.60;1.00;;;;;;5031073;28;20200;-76
2023/05/03 10:20:25;;;;;;;7.10;3.47;;;12.70;1.00;;;;;;5029817;28;20267;-76
2023/05/03 10:23:03;;;;;;;3.87;2.40;;;12.80;1.00;;;;;;5031024;28;20232;-76
2023/05/03 10:25:29;;;;;;;4.67;3.07;;;12.90;1.00;;;;;;5029969;28;20176;-75
2023/05/03 10:28:04;;;;;;;5.97;2.50;;;12.90;1.00;;;;;;5009724;28;20197;-76
2023/05/03 10:30:36;;;;;;;7.10;2.77;;;12.90;1.00;;;;;;5011268;28;20161;-76
2023/05/03 10:33:16;;;;;;;6.43;2.70;;;13.00;1.00;;;;;;5011191;28;20173;-76
2023/05/03 10:35:51;;;;;;;6.13;2.20;;;13.00;1.00;;;;;;5010925;28;20185;-77
2023/05/03 10:38:19;;;;;;;5.80;2.73;;;13.10;1.00;;;;;;5009717;28;20207;-76
2023/05/03 10:40:45;;;;;;;2.60;2.40;;;13.10;99.90;;;;;;5011046;28;20207;-76
2023/05/03 10:43:31;;;;;;;5.13;2.30;;;13.10;99.90;;;;;;5010994;28;20228;-76
2023/05/03 10:46:05;;;;;;;4.43;2.63;;;13.10;1.00;;;;;;5010817;28;20710;-76
2023/05/03 10:48:32;;;;;;;5.23;2.20;;;13.20;99.90;;;;;;5009638;28;20220;-76
2023/05/03 10:51:31;;;;;;;3.13;2.30;;;13.20;99.90;;;;;;5010935;28;20169;-76
2023/05/03 10:53:57;;;;;;;3.50;2.33;;;13.30;99.90;;;;;;5011030;28;20157;-76
2023/05/03 10:56:23;;;;;;;5.17;2.47;;;13.30;99.90;;;;;;5009277;28;20192;-76
2023/05/03 10:58:49;;;;;;;3.30;2.73;;;13.40;1.00;;;;;;5009554;28;20184;-76
2023/05/03 11:01:17;;;;;;;4.83;2.60;;;13.50;1.00;;;;;;5009479;28;20173;-76
2023/05/03 11:03:49;;;;;;;8.67;2.73;;;13.50;99.90;;;;;;5011151;28;20834;-77
2023/05/03 11:06:39;;;;;;;5.80;2.93;;;13.60;1.00;;;;;;5009137;28;20233;-76
2023/05/03 11:09:07;;;;;;;4.53;2.37;;;13.70;99.90;;;;;;5010605;28;20158;-76
2023/05/03 11:11:35;;;;;;;5.87;2.80;;;13.70;99.90;;;;;;5010471;28;20263;-77
2023/05/03 11:14:01;;;;;;;7.03;2.40;;;13.70;99.90;;;;;;5009608;28;20638;-76
2023/05/03 11:16:27;;;;;;;5.40;2.50;;;13.70;99.90;;;;;;5010330;28;20263;-76
2023/05/03 11:18:53;;;;;;;4.47;2.70;;;13.80;99.90;;;;;;5010766;28;20175;-76
2023/05/03 11:21:20;;;;;;;3.80;2.80;;;13.80;99.90;;;;;;5010489;28;20176;-76
2023/05/03 11:23:45;;;;;;;6.53;2.60;;;13.80;99.90;;;;;;5010491;28;20224;-76
2023/05/03 11:26:12;;;;;;;5.07;2.40;;;14.00;99.90;;;;;;5020709;28;20260;-76
2023/05/03 11:28:42;;;;;;;4.97;2.30;;;14.00;99.90;;;;;;5030027;28;20222;-76
2023/05/03 11:31:08;;;;;;;3.20;2.40;;;14.10;99.90;;;;;;5030189;28;20176;-76
2023/05/03 11:33:36;;;;;;;6.07;2.13;;;14.20;99.90;;;;;;5030006;28;20180;-76
2023/05/03 11:36:02;;;;;;;4.23;3.07;;;14.20;99.90;;;;;;5019705;28;20188;-76
2023/05/03 11:38:31;;;;;;;5.30;2.80;;;14.20;11.70;;;;;;5010049;28;20230;-76
2023/05/03 11:40:57;;;;;;;6.27;2.83;;;14.30;99.90;;;;;;5010610;28;20664;-79
2023/05/03 11:43:24;;;;;;;6.93;2.80;;;14.30;99.90;;;;;;5008800;28;20201;-76
2023/05/03 11:45:52;;;;;;;5.63;2.57;;;14.40;99.90;;;;;;5017292;28;20184;-76
2023/05/03 11:48:17;;;;;;;5.17;2.60;;;14.50;99.90;;;;;;5028371;28;20287;-76
2023/05/03 11:50:54;;;;;;;5.00;2.47;;;14.50;1.00;;;;;;5029748;28;20688;-76
2023/05/03 11:53:24;;;;;;;5.80;2.53;;;14.50;73.60;;;;;;5010266;28;20539;-76
2023/05/03 11:55:52;;;;;;;4.73;2.30;;;14.70;99.90;;;;;;5009931;28;20180;-76
2023/05/03 11:58:25;;;;;;;5.13;2.37;;;14.60;79.10;;;;;;5008580;28;20193;-76
2023/05/03 12:00:55;;;;;;;5.20;2.03;;;14.70;99.90;;;;;;5009875;28;20540;-76
2023/05/03 12:03:24;;;;;;;7.67;2.40;;;14.70;99.90;;;;;;5028752;28;20295;-76
2023/05/03 12:05:54;;;;;;;3.87;2.80;;;14.80;64.10;;;;;;5028437;28;20225;-76
2023/05/03 12:08:20;;;;;;;2.93;2.30;;;14.80;1.00;;;;;;5029366;28;20189;-76
2023/05/03 12:10:48;;;;;;;4.43;2.30;;;14.90;45.10;;;;;;5029490;28;20176;-76
2023/05/03 12:13:13;;;;;;;3.27;2.00;;;14.70;54.80;;;;;;5011057;28;20205;-75
2023/05/03 12:15:42;;;;;;;6.97;2.27;;;14.80;48.50;;;;;;5010108;28;20261;-75
2023/05/03 12:18:09;;;;;;;4.60;2.67;;;14.90;99.90;;;;;;5016515;28;20332;-76
2023/05/03 12:20:36;;;;;;;3.87;2.20;;;15.00;99.90;;;;;;5017347;28;20185;-76
2023/05/03 12:23:04;;;;;;;4.23;2.70;;;15.00;1.00;;;;;;5040466;28;20195;-76
2023/05/03 12:25:30;;;;;;;3.33;2.20;;;15.00;61.10;;;;;;5047802;28;20635;-76
2023/05/03 12:27:59;;;;;;;6.03;2.73;;;15.10;1.00;;;;;;5028414;28;20730;-76
2023/05/03 12:30:25;;;;;;;2.97;2.30;;;15.10;28.90;;;;;;5029186;28;20213;-76
2023/05/03 12:32:51;;;;;;;3.93;2.67;;;15.10;1.00;;;;;;5029490;28;20176;-76
2023/05/03 12:35:19;;;;;;;4.23;2.60;;;15.10;1.00;;;;;;5027657;28;20288;-76
2023/05/03 12:37:45;;;;;;;4.40;2.23;;;15.10;22.60;;;;;;5026933;28;20200;-76
2023/05/03 12:40:11;;;;;;;3.00;2.33;;;15.10;1.00;;;;;;5029098;28;20260;-76
2023/05/03 12:42:37;;;;;;;2.97;2.27;;;15.20;1.00;;;;;;5029419;28;20282;-75
2023/05/03 12:45:03;;;;;;;5.97;2.23;;;15.30;1.00;;;;;;5021144;28;20719;-76
2023/05/03 12:47:29;;;;;;;3.73;2.00;;;15.40;1.00;;;;;;5009397;28;20234;-76
2023/05/03 12:49:54;;;;;;;4.23;2.20;;;15.40;1.00;;;;;;5008827;28;20181;-76
2023/05/03 12:52:21;;;;;;;3.97;1.93;;;15.50;1.00;;;;;;5009287;28;20180;-76
2023/05/03 12:54:47;;;;;;;9.33;2.33;;;15.50;1.00;;;;;;5013068;28;20726;-76